Time;durP1;ratioP1;P1;durP2;ratioP2;P2;SDS_P1;SDS_P2;PMS_P1;PMS_P2;Temp;Humidity;BMP_temperature;BMP_pressure;BME280_temperature;BME280_humidity;BME280_pressure;Samples;Min_cycle;Max_cycle;Signal;HPM_P1;HPM_P2
2023/07/23 00:01:37;;;;;;;;;;;15.20;99.90;;;;;;12505835;28;19936;-43
2023/07/23 00:07:39;;;;;;;;;;;15.20;99.90;;;;;;12503450;28;19929;-43
2023/07/23 00:13:40;;;;;;;;;;;15.10;99.90;;;;;;12488950;28;19987;-42
2023/07/23 00:19:42;;;;;;;;;;;15.10;99.90;;;;;;12533924;28;20398;-43
2023/07/23 00:25:44;;;;;;;;;;;15.00;99.90;;;;;;12513543;28;20385;-42
2023/07/23 00:31:46;;;;;;;;;;;15.00;99.90;;;;;;12515709;28;19921;-42
2023/07/23 00:37:47;;;;;;;;;;;15.00;99.90;;;;;;12516118;28;19970;-42
2023/07/23 00:43:49;;;;;;;;;;;14.90;99.90;;;;;;12527441;28;19921;-42
2023/07/23 00:49:51;;;;;;;;;;;14.90;99.90;;;;;;12540749;28;19969;-42
2023/07/23 00:55:53;;;;;;;;;;;14.90;99.90;;;;;;12524886;28;19978;-42
2023/07/23 01:01:56;;;;;;;;;;;14.90;99.90;;;;;;12533412;28;19928;-43
2023/07/23 01:07:58;;;;;;;;;;;14.90;99.90;;;;;;12509507;28;20278;-42
2023/07/23 01:14:02;;;;;;;;;;;14.80;99.90;;;;;;12505737;28;20300;-42
2023/07/23 01:20:05;;;;;;;;;;;14.80;99.90;;;;;;12504186;28;21105;-42
2023/07/23 01:26:10;;;;;;;;;;;14.80;99.90;;;;;;12523491;28;20391;-42
2023/07/23 01:32:11;;;;;;;;;;;14.80;99.90;;;;;;12512903;28;19921;-42
2023/07/23 01:38:14;;;;;;;;;;;14.70;99.90;;;;;;12515985;28;20301;-42
2023/07/23 01:44:15;;;;;;;;;;;14.60;99.90;;;;;;12519821;28;19921;-42
2023/07/23 01:50:17;;;;;;;;;;;14.60;99.90;;;;;;12527193;28;19931;-42
2023/07/23 01:56:20;;;;;;;;;;;14.60;99.90;;;;;;12521962;28;20600;-42
2023/07/23 02:02:22;;;;;;;;;;;14.60;99.90;;;;;;12527300;28;20388;-42
2023/07/23 02:08:24;;;;;;;;;;;14.60;99.90;;;;;;12512225;28;20336;-42
2023/07/23 02:14:26;;;;;;;;;;;14.60;99.90;;;;;;12504184;28;20321;-43
2023/07/23 02:20:28;;;;;;;;;;;14.60;99.90;;;;;;12517416;28;19924;-42
2023/07/23 02:26:29;;;;;;;;;;;14.70;99.90;;;;;;12528812;28;19968;-43
2023/07/23 02:32:31;;;;;;;;;;;14.70;99.90;;;;;;12518230;28;19924;-42
2023/07/23 02:38:33;;;;;;;;;;;14.70;99.90;;;;;;12517190;28;19925;-42
2023/07/23 02:44:38;;;;;;;;;;;14.70;99.90;;;;;;12531104;28;20377;-43
2023/07/23 02:50:40;;;;;;;;;;;14.60;99.90;;;;;;12508883;28;19988;-42
2023/07/23 02:56:42;;;;;;;;;;;14.70;99.90;;;;;;12514175;28;19920;-43
2023/07/23 03:02:44;;;;;;;;;;;14.80;99.90;;;;;;12493241;28;20337;-42
2023/07/23 03:08:46;;;;;;;;;;;14.90;99.90;;;;;;12496060;28;20422;-42
2023/07/23 03:14:49;;;;;;;;;;;14.90;99.90;;;;;;12511309;28;19925;-42
2023/07/23 03:20:51;;;;;;;;;;;14.90;99.90;;;;;;12505184;28;20388;-42
2023/07/23 03:26:52;;;;;;;;;;;15.00;99.90;;;;;;12521751;28;19979;-43
2023/07/23 03:32:55;;;;;;;;;;;15.00;99.90;;;;;;12505766;28;19925;-42
2023/07/23 03:38:57;;;;;;;;;;;15.00;99.90;;;;;;12525212;28;19966;-42
2023/07/23 03:44:59;;;;;;;;;;;15.00;99.90;;;;;;12501577;28;20324;-42
2023/07/23 03:51:01;;;;;;;;;;;15.00;99.90;;;;;;12505506;28;19928;-43
2023/07/23 03:57:03;;;;;;;;;;;15.00;99.90;;;;;;12492370;28;19944;-42
2023/07/23 04:03:05;;;;;;;;;;;15.00;99.90;;;;;;12520568;28;19924;-42
2023/07/23 04:09:08;;;;;;;;;;;15.10;99.90;;;;;;12505415;28;21212;-42
2023/07/23 04:15:09;;;;;;;;;;;15.10;99.90;;;;;;12496171;28;20377;-42
2023/07/23 04:21:11;;;;;;;;;;;15.10;99.90;;;;;;12495477;28;19931;-42
2023/07/23 04:27:13;;;;;;;;;;;15.30;99.90;;;;;;12483922;28;19921;-42
2023/07/23 04:33:15;;;;;;;;;;;15.20;99.90;;;;;;12483189;28;19928;-43
2023/07/23 04:39:17;;;;;;;;;;;15.30;99.90;;;;;;12518502;28;19921;-42
2023/07/23 04:45:19;;;;;;;;;;;15.30;99.90;;;;;;12507165;28;19929;-42
2023/07/23 04:51:20;;;;;;;;;;;15.40;99.90;;;;;;12516812;28;20308;-42
2023/07/23 04:57:22;;;;;;;;;;;15.40;99.90;;;;;;12507856;28;19920;-42
2023/07/23 05:03:24;;;;;;;;;;;15.50;99.90;;;;;;12513352;28;19931;-42
2023/07/23 05:09:26;;;;;;;;;;;15.60;99.90;;;;;;12494030;28;19967;-43
2023/07/23 05:15:28;;;;;;;;;;;15.60;99.90;;;;;;12500739;28;19925;-42
2023/07/23 05:21:34;;;;;;;;;;;15.70;99.90;;;;;;12530458;28;20368;-42
2023/07/23 05:27:36;;;;;;;;;;;15.80;99.90;;;;;;12513842;28;20379;-42
2023/07/23 05:33:38;;;;;;;;;;;15.90;99.90;;;;;;12505297;28;20007;-42
2023/07/23 05:39:40;;;;;;;;;;;16.00;99.90;;;;;;12522734;28;20026;-42
2023/07/23 05:45:42;;;;;;;;;;;16.10;99.90;;;;;;12493792;28;20413;-42
2023/07/23 05:51:44;;;;;;;;;;;16.10;99.90;;;;;;12519221;28;20011;-42
2023/07/23 05:57:46;;;;;;;;;;;16.20;99.90;;;;;;12526805;28;19960;-42
2023/07/23 06:03:48;;;;;;;;;;;16.30;99.90;;;;;;12516450;28;19930;-43
2023/07/23 06:09:55;;;;;;;;;;;16.50;99.90;;;;;;12501604;28;20087;-42
2023/07/23 06:15:57;;;;;;;;;;;16.60;99.90;;;;;;12505140;28;19925;-42
2023/07/23 06:21:58;;;;;;;;;;;16.80;99.90;;;;;;12506220;28;19975;-42
2023/07/23 06:28:00;;;;;;;;;;;16.90;99.90;;;;;;12515896;28;19924;-42
2023/07/23 06:34:02;;;;;;;;;;;17.00;99.90;;;;;;12515653;28;20373;-42
2023/07/23 06:40:05;;;;;;;;;;;17.10;99.90;;;;;;12508998;28;19928;-41
2023/07/23 06:46:06;;;;;;;;;;;17.30;99.90;;;;;;12495127;28;19925;-42
2023/07/23 06:52:08;;;;;;;;;;;17.40;99.90;;;;;;12504768;28;19936;-42
2023/07/23 06:58:10;;;;;;;;;;;17.50;99.90;;;;;;12506097;28;19927;-43
2023/07/23 07:04:12;;;;;;;;;;;17.70;99.90;;;;;;12521160;28;19925;-42
2023/07/23 07:10:14;;;;;;;;;;;17.80;99.90;;;;;;12502474;28;19927;-43
2023/07/23 07:16:16;;;;;;;;;;;17.80;99.90;;;;;;12480048;28;19924;-43
2023/07/23 07:22:18;;;;;;;;;;;18.00;99.90;;;;;;12487511;28;19932;-43
2023/07/23 07:28:20;;;;;;;;;;;18.10;99.90;;;;;;12510176;28;19995;-43
2023/07/23 07:34:22;;;;;;;;;;;18.30;99.90;;;;;;12511867;28;20416;-42
2023/07/23 07:40:23;;;;;;;;;;;18.50;99.90;;;;;;12505540;28;20032;-43
2023/07/23 07:46:25;;;;;;;;;;;18.70;99.90;;;;;;12503934;28;19967;-42
2023/07/23 07:52:27;;;;;;;;;;;18.80;99.90;;;;;;12502610;28;19920;-43
2023/07/23 07:58:29;;;;;;;;;;;19.00;99.90;;;;;;12491972;28;19964;-42
2023/07/23 08:04:31;;;;;;;;;;;19.10;99.90;;;;;;12519614;28;20513;-43
2023/07/23 08:10:36;;;;;;;;;;;19.30;99.90;;;;;;12500834;28;20376;-43
2023/07/23 08:16:39;;;;;;;;;;;19.50;99.90;;;;;;12489479;28;19936;-42
2023/07/23 08:22:41;;;;;;;;;;;19.60;99.90;;;;;;12495010;28;19924;-43
2023/07/23 08:28:46;;;;;;;;;;;19.70;99.90;;;;;;12498454;28;20285;-43
2023/07/23 08:34:48;;;;;;;;;;;19.80;99.90;;;;;;12524094;28;19987;-42
2023/07/23 08:40:56;;;;;;;;;;;19.80;99.90;;;;;;12513218;28;20288;-43
2023/07/23 08:47:12;;;;;;;;;;;19.80;99.90;;;;;;12523126;28;20329;-43
2023/07/23 08:53:15;;;;;;;;;;;19.90;99.90;;;;;;12508422;28;20445;-43
2023/07/23 08:59:18;;;;;;;;;;;20.20;99.90;;;;;;12507883;28;20016;-43
2023/07/23 09:05:20;;;;;;;;;;;20.40;99.90;;;;;;12533806;28;19952;-43
2023/07/23 09:11:22;;;;;;;;;;;20.40;99.90;;;;;;12504851;28;20013;-43
2023/07/23 09:17:24;;;;;;;;;;;20.40;99.90;;;;;;12505798;28;19925;-42
2023/07/23 09:23:26;;;;;;;;;;;20.20;99.90;;;;;;12504199;28;19921;-43
2023/07/23 09:29:35;;;;;;;;;;;20.10;99.90;;;;;;12483709;28;19921;-43
2023/07/23 09:35:38;;;;;;;;;;;20.00;99.90;;;;;;12498941;28;19921;-43
2023/07/23 09:41:40;;;;;;;;;;;20.10;99.90;;;;;;12504958;28;20262;-43
2023/07/23 09:47:42;;;;;;;;;;;20.00;99.90;;;;;;12515372;28;19925;-43
2023/07/23 09:53:47;;;;;;;;;;;20.00;99.90;;;;;;12519152;28;19971;-43
2023/07/23 09:59:49;;;;;;;;;;;20.00;99.90;;;;;;12528327;28;20019;-43
2023/07/23 10:05:51;;;;;;;;;;;19.90;99.90;;;;;;12503866;28;20015;-43
2023/07/23 10:11:53;;;;;;;;;;;19.70;99.90;;;;;;12484724;28;19928;-42
2023/07/23 10:17:59;;;;;;;;;;;19.40;99.90;;;;;;12484681;28;19924;-43
2023/07/23 10:24:01;;;;;;;;;;;19.10;99.90;;;;;;12521155;28;19948;-43
2023/07/23 10:30:17;;;;;;;;;;;18.90;99.90;;;;;;12496237;28;19966;-43
2023/07/23 10:36:21;;;;;;;;;;;18.40;99.90;;;;;;12510404;28;19925;-42
2023/07/23 10:42:36;;;;;;;;;;;18.20;99.90;;;;;;12518608;28;19974;-43
2023/07/23 10:48:42;;;;;;;;;;;18.20;99.90;;;;;;12506057;28;19921;-43
2023/07/23 10:54:43;;;;;;;;;;;18.30;99.90;;;;;;12514768;28;19925;-43
2023/07/23 11:00:46;;;;;;;;;;;18.50;99.90;;;;;;12500056;28;20373;-43
2023/07/23 11:07:00;;;;;;;;;;;18.70;99.90;;;;;;12513138;28;19968;-43
2023/07/23 11:13:03;;;;;;;;;;;19.20;99.90;;;;;;12481592;28;19978;-43
2023/07/23 11:26:14;;;;;;;;;;;19.70;99.90;;;;;;12516124;28;19978;-43
2023/07/23 11:32:16;;;;;;;;;;;19.60;99.90;;;;;;12509884;28;20270;-42
2023/07/23 11:38:18;;;;;;;;;;;19.60;99.90;;;;;;12505683;28;19983;-43
2023/07/23 11:44:21;;;;;;;;;;;19.60;99.90;;;;;;12495411;28;19944;-42
2023/07/23 11:50:25;;;;;;;;;;;19.80;99.90;;;;;;12512238;28;19981;-42
2023/07/23 11:56:27;;;;;;;;;;;19.80;99.90;;;;;;12509041;28;20344;-43
2023/07/23 12:02:30;;;;;;;;;;;19.90;99.90;;;;;;12507721;28;19921;-42
2023/07/23 12:08:34;;;;;;;;;;;19.90;99.90;;;;;;12492875;28;19925;-42
2023/07/23 12:14:36;;;;;;;;;;;19.70;99.90;;;;;;12509663;28;19971;-43
2023/07/23 12:20:38;;;;;;;;;;;19.70;99.90;;;;;;12514539;28;19925;-43
2023/07/23 12:26:41;;;;;;;;;;;19.90;99.90;;;;;;12518493;28;20700;-43
2023/07/23 12:32:47;;;;;;;;;;;19.70;99.90;;;;;;12488275;28;19920;-42
2023/07/23 12:38:50;;;;;;;;;;;19.50;99.90;;;;;;12491153;28;20364;-43
2023/07/23 12:44:52;;;;;;;;;;;19.40;99.90;;;;;;12489627;28;19925;-43
2023/07/23 12:50:55;;;;;;;;;;;19.20;99.90;;;;;;12497256;28;19925;-43
2023/07/23 12:56:57;;;;;;;;;;;19.20;99.90;;;;;;12510513;28;19921;-42
2023/07/23 13:03:00;;;;;;;;;;;19.30;99.90;;;;;;12498755;28;19927;-43
2023/07/23 13:09:02;;;;;;;;;;;19.00;99.90;;;;;;12497160;28;19921;-42
2023/07/23 13:15:07;;;;;;;;;;;19.10;99.90;;;;;;12521126;28;20395;-42
2023/07/23 13:21:10;;;;;;;;;;;18.80;99.90;;;;;;12501985;28;20406;-43
2023/07/23 13:27:13;;;;;;;;;;;18.70;99.90;;;;;;12514653;28;19974;-42
2023/07/23 13:33:16;;;;;;;;;;;18.70;99.90;;;;;;12518858;28;19936;-42
2023/07/23 13:39:18;;;;;;;;;;;18.60;99.90;;;;;;12503082;28;19950;-42
2023/07/23 13:45:20;;;;;;;;;;;18.50;99.90;;;;;;12529339;28;19929;-42
2023/07/23 13:51:22;;;;;;;;;;;18.40;99.90;;;;;;12518503;28;19928;-43
2023/07/23 13:57:25;;;;;;;;;;;18.20;99.90;;;;;;12517411;28;19927;-43
2023/07/23 14:03:28;;;;;;;;;;;18.30;99.90;;;;;;12522865;28;19921;-43
2023/07/23 14:09:31;;;;;;;;;;;18.30;99.90;;;;;;12522339;28;19924;-43
2023/07/23 14:15:33;;;;;;;;;;;18.30;99.90;;;;;;12526018;28;19925;-42
2023/07/23 14:21:35;;;;;;;;;;;18.00;99.90;;;;;;12508939;28;20292;-42
2023/07/23 14:27:37;;;;;;;;;;;17.90;99.90;;;;;;12495270;28;19921;-42
2023/07/23 14:33:40;;;;;;;;;;;17.70;99.90;;;;;;12509652;28;19932;-42
2023/07/23 14:39:43;;;;;;;;;;;17.80;99.90;;;;;;12494463;28;19921;-43
2023/07/23 14:45:45;;;;;;;;;;;18.00;99.90;;;;;;12472437;28;20376;-43
2023/07/23 14:51:48;;;;;;;;;;;18.10;99.90;;;;;;12492319;28;19921;-43
2023/07/23 14:57:50;;;;;;;;;;;18.20;99.90;;;;;;12493252;28;19998;-43
2023/07/23 15:03:53;;;;;;;;;;;18.20;99.90;;;;;;12506802;28;19924;-42
2023/07/23 15:09:56;;;;;;;;;;;18.40;99.90;;;;;;12503868;28;19925;-43
2023/07/23 15:15:58;;;;;;;;;;;18.30;99.90;;;;;;12510986;28;19975;-43
2023/07/23 15:22:01;;;;;;;;;;;18.30;99.90;;;;;;12522306;28;19973;-42
2023/07/23 15:28:05;;;;;;;;;;;18.20;99.90;;;;;;12528985;28;19928;-43
2023/07/23 15:34:08;;;;;;;;;;;18.20;99.90;;;;;;12508772;28;19920;-43
2023/07/23 15:40:11;;;;;;;;;;;18.00;99.90;;;;;;12542433;28;19924;-43
2023/07/23 15:46:13;;;;;;;;;;;18.00;99.90;;;;;;12508007;28;20020;-42
2023/07/23 15:52:16;;;;;;;;;;;17.90;99.90;;;;;;12517116;28;19920;-43
2023/07/23 15:58:18;;;;;;;;;;;18.10;99.90;;;;;;12503785;28;19921;-42
2023/07/23 16:04:20;;;;;;;;;;;18.20;99.90;;;;;;12494137;28;20069;-43
2023/07/23 16:10:23;;;;;;;;;;;18.30;99.90;;;;;;12515693;28;20014;-43
2023/07/23 16:16:25;;;;;;;;;;;18.30;99.90;;;;;;12517795;28;19948;-43
2023/07/23 16:22:27;;;;;;;;;;;18.40;99.90;;;;;;12513219;28;20384;-42
2023/07/23 16:28:30;;;;;;;;;;;18.50;99.90;;;;;;12478870;28;19968;-43
2023/07/23 16:34:32;;;;;;;;;;;18.70;99.90;;;;;;12496885;28;20026;-42
2023/07/23 16:40:34;;;;;;;;;;;18.80;99.90;;;;;;12483153;28;19929;-42
2023/07/23 16:46:36;;;;;;;;;;;18.90;99.90;;;;;;12494395;28;19967;-43
2023/07/23 16:52:39;;;;;;;;;;;18.90;99.90;;;;;;12507717;28;19924;-43
2023/07/23 16:58:41;;;;;;;;;;;18.90;99.90;;;;;;12513858;28;20004;-43
2023/07/23 17:04:44;;;;;;;;;;;19.30;99.90;;;;;;12528649;28;19944;-43
2023/07/23 17:10:47;;;;;;;;;;;19.80;99.90;;;;;;12503859;28;20671;-43
2023/07/23 17:16:49;;;;;;;;;;;19.70;99.90;;;;;;12509604;28;19963;-43
2023/07/23 17:22:52;;;;;;;;;;;19.50;99.90;;;;;;12517655;28;19929;-43
2023/07/23 17:28:55;;;;;;;;;;;19.30;99.90;;;;;;12528844;28;19931;-43
2023/07/23 17:34:57;;;;;;;;;;;19.20;99.90;;;;;;12535456;28;20338;-42
2023/07/23 17:41:00;;;;;;;;;;;19.20;99.90;;;;;;12533904;28;19931;-43
2023/07/23 17:47:03;;;;;;;;;;;19.30;99.90;;;;;;12513847;28;19921;-42
2023/07/23 17:53:06;;;;;;;;;;;19.40;99.90;;;;;;12513216;28;19921;-42
2023/07/23 17:59:09;;;;;;;;;;;19.40;99.90;;;;;;12500816;28;20016;-42
2023/07/23 18:05:12;;;;;;;;;;;19.60;99.90;;;;;;12509310;28;19999;-43
2023/07/23 18:11:15;;;;;;;;;;;19.90;99.90;;;;;;12516067;28;19944;-42
2023/07/23 18:17:17;;;;;;;;;;;20.00;99.90;;;;;;12518149;28;19999;-42
2023/07/23 18:23:19;;;;;;;;;;;19.90;99.90;;;;;;12513410;28;19921;-42
2023/07/23 18:29:25;;;;;;;;;;;19.80;99.90;;;;;;12494649;28;19994;-43
2023/07/23 18:35:27;;;;;;;;;;;19.70;99.90;;;;;;12499786;28;20396;-42
2023/07/23 18:41:32;;;;;;;;;;;19.70;99.90;;;;;;12496936;28;19921;-42
2023/07/23 18:47:34;;;;;;;;;;;19.60;99.90;;;;;;12484486;28;20003;-42
2023/07/23 18:53:37;;;;;;;;;;;19.50;99.90;;;;;;12491504;28;19921;-42
2023/07/23 18:59:41;;;;;;;;;;;19.50;99.90;;;;;;12510493;28;20338;-42
2023/07/23 19:05:47;;;;;;;;;;;19.40;99.90;;;;;;12492061;28;19929;-42
2023/07/23 19:11:50;;;;;;;;;;;19.40;99.90;;;;;;12508001;28;19944;-42
2023/07/23 19:17:53;;;;;;;;;;;19.30;99.90;;;;;;12506250;28;19956;-42
2023/07/23 19:23:55;;;;;;;;;;;19.30;99.90;;;;;;12514440;28;20251;-42
2023/07/23 19:29:58;;;;;;;;;;;19.30;99.90;;;;;;12530729;28;19943;-42
2023/07/23 19:36:00;;;;;;;;;;;19.30;99.90;;;;;;12520170;28;19924;-42
2023/07/23 19:42:03;;;;;;;;;;;19.40;99.90;;;;;;12508609;28;19974;-42
2023/07/23 19:48:06;;;;;;;;;;;19.40;99.90;;;;;;12500315;28;19921;-43
2023/07/23 19:54:08;;;;;;;;;;;19.30;99.90;;;;;;12512353;28;20551;-43
2023/07/23 20:00:11;;;;;;;;;;;19.30;99.90;;;;;;12514878;28;19921;-43
2023/07/23 20:06:14;;;;;;;;;;;19.20;99.90;;;;;;12494764;28;19928;-43
2023/07/23 20:12:16;;;;;;;;;;;19.30;99.90;;;;;;12501368;28;19968;-43
2023/07/23 20:18:19;;;;;;;;;;;19.30;99.90;;;;;;12507129;28;19928;-44
2023/07/23 20:24:23;;;;;;;;;;;19.40;99.90;;;;;;12527802;28;20078;-43
2023/07/23 20:30:25;;;;;;;;;;;19.00;99.90;;;;;;12472314;28;19921;-43
2023/07/23 20:36:28;;;;;;;;;;;18.20;99.90;;;;;;12482715;28;19921;-43
2023/07/23 20:42:31;;;;;;;;;;;17.90;99.90;;;;;;12495712;28;19928;-43
2023/07/23 20:48:34;;;;;;;;;;;17.70;99.90;;;;;;12495503;28;19921;-43
2023/07/23 20:54:36;;;;;;;;;;;17.60;99.90;;;;;;12502182;28;20426;-43
2023/07/23 21:00:38;;;;;;;;;;;17.50;99.90;;;;;;12498411;28;20569;-43
2023/07/23 21:06:40;;;;;;;;;;;17.50;99.90;;;;;;12514287;28;19928;-43
2023/07/23 21:12:43;;;;;;;;;;;17.50;99.90;;;;;;12495077;28;19968;-43
2023/07/23 21:18:46;;;;;;;;;;;17.50;99.90;;;;;;12489860;28;19971;-43
2023/07/23 21:24:48;;;;;;;;;;;17.60;99.90;;;;;;12502694;28;19974;-43
2023/07/23 21:30:50;;;;;;;;;;;17.70;99.90;;;;;;12522123;28;20416;-43
2023/07/23 21:36:52;;;;;;;;;;;17.90;99.90;;;;;;12512985;28;20024;-43
2023/07/23 21:42:54;;;;;;;;;;;17.90;99.90;;;;;;12521100;28;19925;-43
2023/07/23 21:48:57;;;;;;;;;;;17.90;99.90;;;;;;12510018;28;20043;-43
2023/07/23 21:55:00;;;;;;;;;;;17.90;99.90;;;;;;12519802;28;19920;-43
2023/07/23 22:01:03;;;;;;;;;;;18.00;99.90;;;;;;12512650;28;19925;-43
2023/07/23 22:07:06;;;;;;;;;;;18.00;99.90;;;;;;12534241;28;20027;-43
2023/07/23 22:13:09;;;;;;;;;;;17.90;99.90;;;;;;12516618;28;20289;-43
2023/07/23 22:19:12;;;;;;;;;;;17.80;99.90;;;;;;12525010;28;19947;-43
2023/07/23 22:25:15;;;;;;;;;;;17.80;99.90;;;;;;12512281;28;19921;-43
2023/07/23 22:31:17;;;;;;;;;;;17.80;99.90;;;;;;12490200;28;19920;-43
2023/07/23 22:37:20;;;;;;;;;;;17.70;99.90;;;;;;12498028;28;19920;-43
2023/07/23 22:43:23;;;;;;;;;;;17.70;99.90;;;;;;12512668;28;19921;-43
2023/07/23 22:49:25;;;;;;;;;;;17.70;99.90;;;;;;12495561;28;19927;-43
2023/07/23 22:55:30;;;;;;;;;;;17.70;99.90;;;;;;12500360;28;19921;-43
2023/07/23 23:01:32;;;;;;;;;;;17.70;99.90;;;;;;12523481;28;19920;-43
2023/07/23 23:07:35;;;;;;;;;;;17.60;99.90;;;;;;12498377;28;19920;-43
2023/07/23 23:13:38;;;;;;;;;;;17.60;99.90;;;;;;12505565;28;20011;-43
2023/07/23 23:19:41;;;;;;;;;;;17.60;99.90;;;;;;12485455;28;20340;-43
2023/07/23 23:25:43;;;;;;;;;;;17.60;99.90;;;;;;12523901;28;19920;-43
2023/07/23 23:31:45;;;;;;;;;;;17.60;99.90;;;;;;12502116;28;19925;-43
2023/07/23 23:37:47;;;;;;;;;;;17.50;99.90;;;;;;12517462;28;19921;-43
2023/07/23 23:43:50;;;;;;;;;;;17.50;99.90;;;;;;12508801;28;19928;-44
2023/07/23 23:49:52;;;;;;;;;;;17.50;99.90;;;;;;12513933;28;19925;-43
2023/07/23 23:55:55;;;;;;;;;;;17.50;99.90;;;;;;12506761;28;19921;-43
